sensor_id;sensor_type;location;lat;lon;timestamp;P1;durP1;ratioP1;P2;durP2;ratioP2
19163;SDS011;9714;51.208;4.242;2022-09-09T00:00:19;10.27;;;2.33;;
19163;SDS011;9714;51.208;4.242;2022-09-09T00:02:49;10.67;;;2.40;;
19163;SDS011;9714;51.208;4.242;2022-09-09T00:05:28;14.53;;;2.17;;
19163;SDS011;9714;51.208;4.242;2022-09-09T00:08:00;12.83;;;2.37;;
19163;SDS011;9714;51.208;4.242;2022-09-09T00:10:31;12.50;;;3.03;;
19163;SDS011;9714;51.208;4.242;2022-09-09T00:13:06;9.33;;;2.40;;
19163;SDS011;9714;51.208;4.242;2022-09-09T00:15:43;14.80;;;3.13;;
19163;SDS011;9714;51.208;4.242;2022-09-09T00:18:17;8.43;;;2.47;;
19163;SDS011;9714;51.208;4.242;2022-09-09T00:20:54;10.67;;;2.30;;
19163;SDS011;9714;51.208;4.242;2022-09-09T00:23:24;11.90;;;2.80;;
19163;SDS011;9714;51.208;4.242;2022-09-09T00:25:56;9.47;;;2.53;;
19163;SDS011;9714;51.208;4.242;2022-09-09T00:28:32;10.13;;;2.53;;
19163;SDS011;9714;51.208;4.242;2022-09-09T00:31:08;10.27;;;2.13;;
19163;SDS011;9714;51.208;4.242;2022-09-09T00:33:44;14.20;;;3.13;;
19163;SDS011;9714;51.208;4.242;2022-09-09T00:36:21;11.90;;;2.50;;
19163;SDS011;9714;51.208;4.242;2022-09-09T00:38:51;7.63;;;2.10;;
19163;SDS011;9714;51.208;4.242;2022-09-09T00:44:30;10.77;;;2.37;;
19163;SDS011;9714;51.208;4.242;2022-09-09T00:47:04;7.57;;;2.30;;
19163;SDS011;9714;51.208;4.242;2022-09-09T00:49:47;12.07;;;2.70;;
19163;SDS011;9714;51.208;4.242;2022-09-09T00:52:28;8.63;;;1.90;;
19163;SDS011;9714;51.208;4.242;2022-09-09T00:55:04;10.10;;;2.10;;
19163;SDS011;9714;51.208;4.242;2022-09-09T00:57:35;13.27;;;2.67;;
19163;SDS011;9714;51.208;4.242;2022-09-09T01:00:16;13.07;;;2.47;;
19163;SDS011;9714;51.208;4.242;2022-09-09T01:02:49;9.90;;;2.30;;
19163;SDS011;9714;51.208;4.242;2022-09-09T01:05:25;7.47;;;1.70;;
19163;SDS011;9714;51.208;4.242;2022-09-09T01:07:58;12.13;;;1.97;;
19163;SDS011;9714;51.208;4.242;2022-09-09T01:10:29;13.00;;;2.10;;
19163;SDS011;9714;51.208;4.242;2022-09-09T01:13:24;11.37;;;3.33;;
19163;SDS011;9714;51.208;4.242;2022-09-09T01:15:52;9.40;;;1.97;;
19163;SDS011;9714;51.208;4.242;2022-09-09T01:18:20;7.40;;;1.93;;
19163;SDS011;9714;51.208;4.242;2022-09-09T01:20:54;11.13;;;2.13;;
19163;SDS011;9714;51.208;4.242;2022-09-09T01:23:38;13.23;;;2.20;;
19163;SDS011;9714;51.208;4.242;2022-09-09T01:26:26;6.50;;;1.83;;
19163;SDS011;9714;51.208;4.242;2022-09-09T01:28:54;9.63;;;2.13;;
19163;SDS011;9714;51.208;4.242;2022-09-09T01:31:22;7.30;;;1.63;;
19163;SDS011;9714;51.208;4.242;2022-09-09T01:33:54;8.37;;;1.90;;
19163;SDS011;9714;51.208;4.242;2022-09-09T01:36:23;10.47;;;2.00;;
19163;SDS011;9714;51.208;4.242;2022-09-09T01:38:55;10.17;;;2.00;;
19163;SDS011;9714;51.208;4.242;2022-09-09T01:41:22;9.90;;;2.20;;
19163;SDS011;9714;51.208;4.242;2022-09-09T01:43:52;13.53;;;2.17;;
19163;SDS011;9714;51.208;4.242;2022-09-09T01:46:21;12.23;;;2.60;;
19163;SDS011;9714;51.208;4.242;2022-09-09T01:48:48;13.57;;;2.50;;
19163;SDS011;9714;51.208;4.242;2022-09-09T01:51:17;10.87;;;2.67;;
19163;SDS011;9714;51.208;4.242;2022-09-09T01:53:44;11.37;;;2.10;;
19163;SDS011;9714;51.208;4.242;2022-09-09T01:56:15;12.37;;;2.40;;
19163;SDS011;9714;51.208;4.242;2022-09-09T01:58:56;13.43;;;3.23;;
19163;SDS011;9714;51.208;4.242;2022-09-09T02:01:34;12.60;;;2.60;;
19163;SDS011;9714;51.208;4.242;2022-09-09T02:04:16;13.73;;;2.90;;
19163;SDS011;9714;51.208;4.242;2022-09-09T02:06:54;10.87;;;2.43;;
19163;SDS011;9714;51.208;4.242;2022-09-09T02:09:23;9.10;;;2.90;;
19163;SDS011;9714;51.208;4.242;2022-09-09T02:11:52;7.87;;;2.70;;
19163;SDS011;9714;51.208;4.242;2022-09-09T02:14:27;10.83;;;3.23;;
19163;SDS011;9714;51.208;4.242;2022-09-09T02:17:03;12.17;;;3.10;;
19163;SDS011;9714;51.208;4.242;2022-09-09T02:19:39;13.20;;;3.30;;
19163;SDS011;9714;51.208;4.242;2022-09-09T02:22:11;14.13;;;3.77;;
19163;SDS011;9714;51.208;4.242;2022-09-09T02:24:39;13.47;;;3.20;;
19163;SDS011;9714;51.208;4.242;2022-09-09T02:27:07;13.77;;;3.20;;
19163;SDS011;9714;51.208;4.242;2022-09-09T02:29:37;10.17;;;3.43;;
19163;SDS011;9714;51.208;4.242;2022-09-09T02:32:09;11.37;;;3.60;;
19163;SDS011;9714;51.208;4.242;2022-09-09T02:34:40;14.70;;;3.60;;
19163;SDS011;9714;51.208;4.242;2022-09-09T02:37:12;20.03;;;3.83;;
19163;SDS011;9714;51.208;4.242;2022-09-09T02:39:41;12.90;;;3.53;;
19163;SDS011;9714;51.208;4.242;2022-09-09T02:42:09;12.37;;;3.93;;
19163;SDS011;9714;51.208;4.242;2022-09-09T02:44:37;16.17;;;3.33;;
19163;SDS011;9714;51.208;4.242;2022-09-09T02:47:07;12.43;;;3.70;;
19163;SDS011;9714;51.208;4.242;2022-09-09T02:49:44;12.17;;;3.70;;
19163;SDS011;9714;51.208;4.242;2022-09-09T02:52:23;13.90;;;4.13;;
19163;SDS011;9714;51.208;4.242;2022-09-09T02:54:57;13.73;;;3.80;;
19163;SDS011;9714;51.208;4.242;2022-09-09T02:57:30;14.77;;;3.80;;
19163;SDS011;9714;51.208;4.242;2022-09-09T03:00:00;13.87;;;3.00;;
19163;SDS011;9714;51.208;4.242;2022-09-09T03:02:30;10.83;;;4.00;;
19163;SDS011;9714;51.208;4.242;2022-09-09T03:04:58;18.57;;;3.67;;
19163;SDS011;9714;51.208;4.242;2022-09-09T03:07:25;14.97;;;3.03;;
19163;SDS011;9714;51.208;4.242;2022-09-09T03:09:52;11.90;;;2.80;;
19163;SDS011;9714;51.208;4.242;2022-09-09T03:12:20;17.80;;;3.77;;
19163;SDS011;9714;51.208;4.242;2022-09-09T03:14:47;14.30;;;2.97;;
19163;SDS011;9714;51.208;4.242;2022-09-09T03:17:15;13.03;;;2.60;;
19163;SDS011;9714;51.208;4.242;2022-09-09T03:19:42;9.67;;;2.63;;
19163;SDS011;9714;51.208;4.242;2022-09-09T03:22:09;14.30;;;3.03;;
19163;SDS011;9714;51.208;4.242;2022-09-09T03:24:36;11.43;;;2.57;;
19163;SDS011;9714;51.208;4.242;2022-09-09T03:27:03;11.47;;;2.50;;
19163;SDS011;9714;51.208;4.242;2022-09-09T03:29:31;13.87;;;3.30;;
19163;SDS011;9714;51.208;4.242;2022-09-09T03:31:58;14.83;;;2.93;;
19163;SDS011;9714;51.208;4.242;2022-09-09T03:34:26;10.90;;;2.30;;
19163;SDS011;9714;51.208;4.242;2022-09-09T03:36:53;12.53;;;2.50;;
19163;SDS011;9714;51.208;4.242;2022-09-09T03:39:20;22.10;;;3.40;;
19163;SDS011;9714;51.208;4.242;2022-09-09T03:41:48;15.07;;;2.43;;
19163;SDS011;9714;51.208;4.242;2022-09-09T03:44:15;16.90;;;2.40;;
19163;SDS011;9714;51.208;4.242;2022-09-09T03:46:42;15.33;;;2.57;;
19163;SDS011;9714;51.208;4.242;2022-09-09T03:49:09;19.83;;;2.60;;
19163;SDS011;9714;51.208;4.242;2022-09-09T03:51:37;17.57;;;3.57;;
19163;SDS011;9714;51.208;4.242;2022-09-09T03:54:05;19.20;;;3.27;;
19163;SDS011;9714;51.208;4.242;2022-09-09T03:56:35;14.87;;;2.80;;
19163;SDS011;9714;51.208;4.242;2022-09-09T03:59:02;17.57;;;2.60;;
19163;SDS011;9714;51.208;4.242;2022-09-09T04:01:30;12.87;;;2.93;;
19163;SDS011;9714;51.208;4.242;2022-09-09T04:03:57;15.50;;;3.10;;
19163;SDS011;9714;51.208;4.242;2022-09-09T04:06:24;20.10;;;3.03;;
19163;SDS011;9714;51.208;4.242;2022-09-09T04:08:52;15.80;;;2.60;;
19163;SDS011;9714;51.208;4.242;2022-09-09T04:11:20;20.57;;;3.07;;
19163;SDS011;9714;51.208;4.242;2022-09-09T04:13:48;13.20;;;2.40;;
19163;SDS011;9714;51.208;4.242;2022-09-09T04:16:15;17.27;;;3.30;;
19163;SDS011;9714;51.208;4.242;2022-09-09T04:18:42;16.87;;;3.07;;
19163;SDS011;9714;51.208;4.242;2022-09-09T04:21:09;18.43;;;3.00;;
19163;SDS011;9714;51.208;4.242;2022-09-09T04:23:37;19.63;;;3.83;;
19163;SDS011;9714;51.208;4.242;2022-09-09T04:26:06;11.63;;;2.07;;
19163;SDS011;9714;51.208;4.242;2022-09-09T04:28:35;17.77;;;3.23;;
19163;SDS011;9714;51.208;4.242;2022-09-09T04:31:14;16.03;;;2.70;;
19163;SDS011;9714;51.208;4.242;2022-09-09T04:33:43;15.43;;;2.70;;
19163;SDS011;9714;51.208;4.242;2022-09-09T04:36:10;18.30;;;3.37;;
19163;SDS011;9714;51.208;4.242;2022-09-09T04:38:39;21.47;;;3.00;;
19163;SDS011;9714;51.208;4.242;2022-09-09T04:41:07;13.30;;;2.80;;
19163;SDS011;9714;51.208;4.242;2022-09-09T04:43:36;15.70;;;3.07;;
19163;SDS011;9714;51.208;4.242;2022-09-09T04:46:03;22.80;;;3.00;;
19163;SDS011;9714;51.208;4.242;2022-09-09T04:48:31;16.97;;;2.90;;
19163;SDS011;9714;51.208;4.242;2022-09-09T04:50:59;18.87;;;3.73;;
19163;SDS011;9714;51.208;4.242;2022-09-09T04:53:27;27.40;;;3.33;;
19163;SDS011;9714;51.208;4.242;2022-09-09T04:56:00;14.63;;;2.63;;
19163;SDS011;9714;51.208;4.242;2022-09-09T04:58:30;16.53;;;2.63;;
19163;SDS011;9714;51.208;4.242;2022-09-09T05:01:04;11.40;;;2.40;;
19163;SDS011;9714;51.208;4.242;2022-09-09T05:03:33;14.47;;;2.63;;
19163;SDS011;9714;51.208;4.242;2022-09-09T05:06:04;23.10;;;3.37;;
19163;SDS011;9714;51.208;4.242;2022-09-09T05:08:33;24.17;;;3.67;;
19163;SDS011;9714;51.208;4.242;2022-09-09T05:11:01;18.83;;;3.63;;
19163;SDS011;9714;51.208;4.242;2022-09-09T05:13:28;15.93;;;2.77;;
19163;SDS011;9714;51.208;4.242;2022-09-09T05:15:58;18.37;;;3.40;;
19163;SDS011;9714;51.208;4.242;2022-09-09T05:18:24;17.47;;;2.97;;
19163;SDS011;9714;51.208;4.242;2022-09-09T05:20:51;21.43;;;3.03;;
19163;SDS011;9714;51.208;4.242;2022-09-09T05:23:18;16.90;;;2.63;;
19163;SDS011;9714;51.208;4.242;2022-09-09T05:25:54;18.13;;;3.23;;
19163;SDS011;9714;51.208;4.242;2022-09-09T05:28:22;19.43;;;3.63;;
19163;SDS011;9714;51.208;4.242;2022-09-09T05:30:55;18.37;;;3.20;;
19163;SDS011;9714;51.208;4.242;2022-09-09T05:33:29;19.73;;;2.70;;
19163;SDS011;9714;51.208;4.242;2022-09-09T05:35:56;16.17;;;3.30;;
19163;SDS011;9714;51.208;4.242;2022-09-09T05:38:25;15.00;;;2.60;;
19163;SDS011;9714;51.208;4.242;2022-09-09T05:40:52;16.07;;;3.00;;
19163;SDS011;9714;51.208;4.242;2022-09-09T05:43:19;18.20;;;2.77;;
19163;SDS011;9714;51.208;4.242;2022-09-09T05:45:46;17.30;;;2.50;;
19163;SDS011;9714;51.208;4.242;2022-09-09T05:48:15;15.50;;;2.77;;
19163;SDS011;9714;51.208;4.242;2022-09-09T05:50:43;13.00;;;2.77;;
19163;SDS011;9714;51.208;4.242;2022-09-09T05:53:19;18.13;;;2.63;;
19163;SDS011;9714;51.208;4.242;2022-09-09T05:55:46;12.90;;;2.53;;
19163;SDS011;9714;51.208;4.242;2022-09-09T05:58:13;19.27;;;3.27;;
19163;SDS011;9714;51.208;4.242;2022-09-09T06:00:42;12.50;;;2.57;;
19163;SDS011;9714;51.208;4.242;2022-09-09T06:03:10;16.63;;;3.23;;
19163;SDS011;9714;51.208;4.242;2022-09-09T06:05:38;17.10;;;2.83;;
19163;SDS011;9714;51.208;4.242;2022-09-09T06:08:05;18.10;;;3.17;;
19163;SDS011;9714;51.208;4.242;2022-09-09T06:10:32;19.83;;;3.13;;
19163;SDS011;9714;51.208;4.242;2022-09-09T06:12:59;15.20;;;2.77;;
19163;SDS011;9714;51.208;4.242;2022-09-09T06:15:26;19.93;;;2.93;;
19163;SDS011;9714;51.208;4.242;2022-09-09T06:17:55;13.73;;;2.20;;
19163;SDS011;9714;51.208;4.242;2022-09-09T06:20:22;16.57;;;3.00;;
19163;SDS011;9714;51.208;4.242;2022-09-09T06:22:51;16.67;;;2.40;;
19163;SDS011;9714;51.208;4.242;2022-09-09T06:25:18;17.77;;;2.93;;
19163;SDS011;9714;51.208;4.242;2022-09-09T06:27:48;18.43;;;2.63;;
19163;SDS011;9714;51.208;4.242;2022-09-09T06:30:15;14.23;;;3.13;;
19163;SDS011;9714;51.208;4.242;2022-09-09T06:32:43;18.73;;;3.07;;
19163;SDS011;9714;51.208;4.242;2022-09-09T06:35:10;13.33;;;3.23;;
19163;SDS011;9714;51.208;4.242;2022-09-09T06:37:38;13.27;;;2.13;;
19163;SDS011;9714;51.208;4.242;2022-09-09T06:40:07;14.03;;;2.60;;
19163;SDS011;9714;51.208;4.242;2022-09-09T06:42:35;14.90;;;2.27;;
19163;SDS011;9714;51.208;4.242;2022-09-09T06:45:02;18.03;;;2.60;;
19163;SDS011;9714;51.208;4.242;2022-09-09T06:47:30;11.00;;;2.13;;
19163;SDS011;9714;51.208;4.242;2022-09-09T06:49:58;12.63;;;2.47;;
19163;SDS011;9714;51.208;4.242;2022-09-09T06:52:25;19.80;;;2.83;;
19163;SDS011;9714;51.208;4.242;2022-09-09T06:54:52;19.60;;;3.10;;
19163;SDS011;9714;51.208;4.242;2022-09-09T06:57:21;17.17;;;2.57;;
19163;SDS011;9714;51.208;4.242;2022-09-09T06:59:49;17.83;;;2.60;;
19163;SDS011;9714;51.208;4.242;2022-09-09T07:02:16;18.17;;;3.20;;
19163;SDS011;9714;51.208;4.242;2022-09-09T07:04:43;16.30;;;2.80;;
19163;SDS011;9714;51.208;4.242;2022-09-09T07:07:10;16.67;;;2.73;;
19163;SDS011;9714;51.208;4.242;2022-09-09T07:09:38;16.13;;;2.80;;
19163;SDS011;9714;51.208;4.242;2022-09-09T07:12:05;14.87;;;2.60;;
19163;SDS011;9714;51.208;4.242;2022-09-09T07:14:34;12.53;;;2.40;;
19163;SDS011;9714;51.208;4.242;2022-09-09T07:17:02;13.97;;;2.97;;
19163;SDS011;9714;51.208;4.242;2022-09-09T07:19:29;17.90;;;3.20;;
19163;SDS011;9714;51.208;4.242;2022-09-09T07:21:56;15.50;;;3.03;;
19163;SDS011;9714;51.208;4.242;2022-09-09T07:24:23;15.87;;;2.77;;
19163;SDS011;9714;51.208;4.242;2022-09-09T07:26:50;14.97;;;2.67;;
19163;SDS011;9714;51.208;4.242;2022-09-09T07:29:18;12.43;;;2.63;;
19163;SDS011;9714;51.208;4.242;2022-09-09T07:31:47;11.47;;;2.23;;
19163;SDS011;9714;51.208;4.242;2022-09-09T07:34:14;14.43;;;3.17;;
19163;SDS011;9714;51.208;4.242;2022-09-09T07:36:41;13.00;;;2.50;;
19163;SDS011;9714;51.208;4.242;2022-09-09T07:39:08;15.40;;;2.97;;
19163;SDS011;9714;51.208;4.242;2022-09-09T07:41:39;12.97;;;2.10;;
19163;SDS011;9714;51.208;4.242;2022-09-09T07:44:08;12.77;;;2.10;;
19163;SDS011;9714;51.208;4.242;2022-09-09T07:46:36;12.00;;;2.40;;
19163;SDS011;9714;51.208;4.242;2022-09-09T07:49:06;12.83;;;2.10;;
19163;SDS011;9714;51.208;4.242;2022-09-09T07:51:34;11.63;;;2.03;;
19163;SDS011;9714;51.208;4.242;2022-09-09T07:54:03;11.27;;;2.50;;
19163;SDS011;9714;51.208;4.242;2022-09-09T07:56:31;14.63;;;2.87;;
19163;SDS011;9714;51.208;4.242;2022-09-09T07:59:00;17.37;;;2.83;;
19163;SDS011;9714;51.208;4.242;2022-09-09T08:01:32;15.23;;;3.23;;
19163;SDS011;9714;51.208;4.242;2022-09-09T08:04:03;12.43;;;2.97;;
19163;SDS011;9714;51.208;4.242;2022-09-09T08:06:34;12.20;;;2.07;;
19163;SDS011;9714;51.208;4.242;2022-09-09T08:09:03;11.53;;;2.00;;
19163;SDS011;9714;51.208;4.242;2022-09-09T08:11:30;17.50;;;2.83;;
19163;SDS011;9714;51.208;4.242;2022-09-09T08:13:58;14.40;;;2.30;;
19163;SDS011;9714;51.208;4.242;2022-09-09T08:16:26;18.50;;;3.13;;
19163;SDS011;9714;51.208;4.242;2022-09-09T08:18:56;15.13;;;2.93;;
19163;SDS011;9714;51.208;4.242;2022-09-09T08:21:26;13.07;;;2.47;;
19163;SDS011;9714;51.208;4.242;2022-09-09T08:23:56;11.60;;;2.20;;
19163;SDS011;9714;51.208;4.242;2022-09-09T08:26:26;16.57;;;2.60;;
19163;SDS011;9714;51.208;4.242;2022-09-09T08:28:56;11.13;;;2.23;;
19163;SDS011;9714;51.208;4.242;2022-09-09T08:31:26;8.90;;;2.57;;
19163;SDS011;9714;51.208;4.242;2022-09-09T08:33:55;17.63;;;4.07;;
19163;SDS011;9714;51.208;4.242;2022-09-09T08:36:24;17.73;;;3.10;;
19163;SDS011;9714;51.208;4.242;2022-09-09T08:38:54;13.07;;;2.37;;
19163;SDS011;9714;51.208;4.242;2022-09-09T08:41:30;22.27;;;2.90;;
19163;SDS011;9714;51.208;4.242;2022-09-09T08:44:18;11.63;;;2.13;;
19163;SDS011;9714;51.208;4.242;2022-09-09T08:46:54;14.87;;;2.67;;
19163;SDS011;9714;51.208;4.242;2022-09-09T08:49:37;11.03;;;2.13;;
19163;SDS011;9714;51.208;4.242;2022-09-09T08:52:15;9.13;;;2.03;;
19163;SDS011;9714;51.208;4.242;2022-09-09T08:54:47;11.80;;;1.77;;
19163;SDS011;9714;51.208;4.242;2022-09-09T08:57:16;12.03;;;2.33;;
19163;SDS011;9714;51.208;4.242;2022-09-09T08:59:47;17.63;;;2.13;;
19163;SDS011;9714;51.208;4.242;2022-09-09T09:02:17;13.03;;;2.77;;
19163;SDS011;9714;51.208;4.242;2022-09-09T09:04:56;12.40;;;2.17;;
19163;SDS011;9714;51.208;4.242;2022-09-09T09:07:33;13.63;;;3.00;;
19163;SDS011;9714;51.208;4.242;2022-09-09T09:10:19;14.53;;;2.30;;
19163;SDS011;9714;51.208;4.242;2022-09-09T09:12:55;12.30;;;2.30;;
19163;SDS011;9714;51.208;4.242;2022-09-09T09:15:25;12.73;;;2.13;;
19163;SDS011;9714;51.208;4.242;2022-09-09T09:17:58;15.97;;;2.53;;
19163;SDS011;9714;51.208;4.242;2022-09-09T09:20:27;13.70;;;2.53;;
19163;SDS011;9714;51.208;4.242;2022-09-09T09:23:00;19.30;;;2.80;;
19163;SDS011;9714;51.208;4.242;2022-09-09T09:25:33;16.13;;;3.03;;
19163;SDS011;9714;51.208;4.242;2022-09-09T09:28:10;12.00;;;2.70;;
19163;SDS011;9714;51.208;4.242;2022-09-09T09:30:42;7.27;;;1.27;;
19163;SDS011;9714;51.208;4.242;2022-09-09T09:33:15;16.00;;;2.60;;
19163;SDS011;9714;51.208;4.242;2022-09-09T09:35:49;13.70;;;2.67;;
19163;SDS011;9714;51.208;4.242;2022-09-09T09:38:18;13.70;;;2.10;;
19163;SDS011;9714;51.208;4.242;2022-09-09T09:40:51;11.23;;;1.97;;
19163;SDS011;9714;51.208;4.242;2022-09-09T09:43:24;12.50;;;2.03;;
19163;SDS011;9714;51.208;4.242;2022-09-09T09:45:53;8.63;;;1.90;;
19163;SDS011;9714;51.208;4.242;2022-09-09T09:48:21;13.37;;;2.60;;
19163;SDS011;9714;51.208;4.242;2022-09-09T09:50:50;12.43;;;2.60;;
19163;SDS011;9714;51.208;4.242;2022-09-09T09:53:20;12.03;;;2.20;;
19163;SDS011;9714;51.208;4.242;2022-09-09T09:55:52;13.00;;;2.10;;
19163;SDS011;9714;51.208;4.242;2022-09-09T09:58:22;12.00;;;2.37;;
19163;SDS011;9714;51.208;4.242;2022-09-09T10:00:51;16.53;;;2.80;;
19163;SDS011;9714;51.208;4.242;2022-09-09T10:03:23;13.27;;;2.83;;
19163;SDS011;9714;51.208;4.242;2022-09-09T10:05:52;14.33;;;2.63;;
19163;SDS011;9714;51.208;4.242;2022-09-09T10:08:21;11.47;;;2.43;;
19163;SDS011;9714;51.208;4.242;2022-09-09T10:10:56;10.43;;;2.10;;
19163;SDS011;9714;51.208;4.242;2022-09-09T10:13:36;14.10;;;2.77;;
19163;SDS011;9714;51.208;4.242;2022-09-09T10:16:16;11.77;;;2.07;;
19163;SDS011;9714;51.208;4.242;2022-09-09T10:21:48;12.33;;;1.97;;
19163;SDS011;9714;51.208;4.242;2022-09-09T10:24:30;12.83;;;1.90;;
19163;SDS011;9714;51.208;4.242;2022-09-09T10:27:18;9.47;;;2.13;;
19163;SDS011;9714;51.208;4.242;2022-09-09T10:29:57;11.93;;;1.87;;
19163;SDS011;9714;51.208;4.242;2022-09-09T10:32:36;13.00;;;2.07;;
19163;SDS011;9714;51.208;4.242;2022-09-09T10:35:10;9.67;;;2.10;;
19163;SDS011;9714;51.208;4.242;2022-09-09T10:37:48;10.17;;;2.07;;
19163;SDS011;9714;51.208;4.242;2022-09-09T10:40:32;14.23;;;2.30;;
19163;SDS011;9714;51.208;4.242;2022-09-09T10:43:07;13.00;;;2.80;;
19163;SDS011;9714;51.208;4.242;2022-09-09T10:45:46;13.87;;;2.57;;
19163;SDS011;9714;51.208;4.242;2022-09-09T10:48:29;13.23;;;2.37;;
19163;SDS011;9714;51.208;4.242;2022-09-09T10:51:09;13.47;;;2.30;;
19163;SDS011;9714;51.208;4.242;2022-09-09T10:53:57;9.17;;;2.30;;
19163;SDS011;9714;51.208;4.242;2022-09-09T10:56:36;8.97;;;1.87;;
19163;SDS011;9714;51.208;4.242;2022-09-09T10:59:09;12.63;;;2.50;;
19163;SDS011;9714;51.208;4.242;2022-09-09T11:01:41;9.03;;;1.60;;
19163;SDS011;9714;51.208;4.242;2022-09-09T11:04:12;9.47;;;1.60;;
19163;SDS011;9714;51.208;4.242;2022-09-09T11:06:44;7.93;;;1.50;;
19163;SDS011;9714;51.208;4.242;2022-09-09T11:09:18;8.47;;;2.00;;
19163;SDS011;9714;51.208;4.242;2022-09-09T11:11:50;9.93;;;1.73;;
19163;SDS011;9714;51.208;4.242;2022-09-09T11:14:22;8.70;;;1.57;;
19163;SDS011;9714;51.208;4.242;2022-09-09T11:16:56;7.53;;;1.73;;
19163;SDS011;9714;51.208;4.242;2022-09-09T11:19:28;8.47;;;1.20;;
19163;SDS011;9714;51.208;4.242;2022-09-09T11:22:01;9.70;;;1.50;;
19163;SDS011;9714;51.208;4.242;2022-09-09T11:24:33;11.70;;;2.20;;
19163;SDS011;9714;51.208;4.242;2022-09-09T11:27:07;10.53;;;1.77;;
19163;SDS011;9714;51.208;4.242;2022-09-09T11:32:53;11.00;;;1.42;;
19163;SDS011;9714;51.208;4.242;2022-09-09T11:35:44;6.95;;;1.40;;
19163;SDS011;9714;51.208;4.242;2022-09-09T11:38:25;7.07;;;1.33;;
19163;SDS011;9714;51.208;4.242;2022-09-09T11:40:56;6.75;;;1.13;;
19163;SDS011;9714;51.208;4.242;2022-09-09T11:43:27;10.23;;;1.65;;
19163;SDS011;9714;51.208;4.242;2022-09-09T11:45:59;7.35;;;1.52;;
19163;SDS011;9714;51.208;4.242;2022-09-09T11:48:29;6.55;;;1.45;;
19163;SDS011;9714;51.208;4.242;2022-09-09T11:51:01;7.15;;;1.35;;
19163;SDS011;9714;51.208;4.242;2022-09-09T11:53:32;8.38;;;1.33;;
19163;SDS011;9714;51.208;4.242;2022-09-09T11:56:08;6.57;;;1.27;;
19163;SDS011;9714;51.208;4.242;2022-09-09T11:58:42;8.25;;;1.27;;
19163;SDS011;9714;51.208;4.242;2022-09-09T12:01:28;6.90;;;1.40;;
19163;SDS011;9714;51.208;4.242;2022-09-09T12:06:59;9.05;;;1.13;;
19163;SDS011;9714;51.208;4.242;2022-09-09T12:09:31;6.07;;;1.45;;
19163;SDS011;9714;51.208;4.242;2022-09-09T12:14:56;7.35;;;1.23;;
19163;SDS011;9714;51.208;4.242;2022-09-09T12:17:29;6.28;;;1.30;;
19163;SDS011;9714;51.208;4.242;2022-09-09T12:20:02;7.55;;;0.90;;
19163;SDS011;9714;51.208;4.242;2022-09-09T12:22:37;6.47;;;1.00;;
19163;SDS011;9714;51.208;4.242;2022-09-09T12:25:29;5.53;;;1.25;;
19163;SDS011;9714;51.208;4.242;2022-09-09T12:28:09;9.20;;;1.38;;
19163;SDS011;9714;51.208;4.242;2022-09-09T12:30:46;8.57;;;1.55;;
19163;SDS011;9714;51.208;4.242;2022-09-09T12:33:22;7.35;;;1.20;;
19163;SDS011;9714;51.208;4.242;2022-09-09T12:35:51;7.93;;;0.82;;
19163;SDS011;9714;51.208;4.242;2022-09-09T12:38:26;7.10;;;1.50;;
19163;SDS011;9714;51.208;4.242;2022-09-09T12:40:58;8.02;;;1.45;;
19163;SDS011;9714;51.208;4.242;2022-09-09T12:43:27;7.32;;;1.17;;
19163;SDS011;9714;51.208;4.242;2022-09-09T12:45:56;5.85;;;1.27;;
19163;SDS011;9714;51.208;4.242;2022-09-09T12:48:32;4.82;;;0.82;;
19163;SDS011;9714;51.208;4.242;2022-09-09T12:51:02;5.18;;;0.95;;
19163;SDS011;9714;51.208;4.242;2022-09-09T12:53:31;7.22;;;1.30;;
19163;SDS011;9714;51.208;4.242;2022-09-09T12:56:01;4.57;;;1.00;;
19163;SDS011;9714;51.208;4.242;2022-09-09T12:58:32;4.18;;;0.68;;
19163;SDS011;9714;51.208;4.242;2022-09-09T13:01:00;5.30;;;1.20;;
19163;SDS011;9714;51.208;4.242;2022-09-09T13:03:32;5.70;;;1.02;;
19163;SDS011;9714;51.208;4.242;2022-09-09T13:06:10;7.50;;;1.42;;
19163;SDS011;9714;51.208;4.242;2022-09-09T13:08:39;7.20;;;1.38;;
19163;SDS011;9714;51.208;4.242;2022-09-09T13:11:07;6.60;;;1.35;;
19163;SDS011;9714;51.208;4.242;2022-09-09T13:13:41;6.97;;;1.38;;
19163;SDS011;9714;51.208;4.242;2022-09-09T13:16:18;6.28;;;1.17;;
19163;SDS011;9714;51.208;4.242;2022-09-09T13:18:49;6.47;;;1.13;;
19163;SDS011;9714;51.208;4.242;2022-09-09T13:21:17;5.45;;;1.10;;
19163;SDS011;9714;51.208;4.242;2022-09-09T13:23:48;6.47;;;1.02;;
19163;SDS011;9714;51.208;4.242;2022-09-09T13:26:20;7.88;;;1.10;;
19163;SDS011;9714;51.208;4.242;2022-09-09T13:28:49;9.00;;;1.40;;
19163;SDS011;9714;51.208;4.242;2022-09-09T13:31:21;2.58;;;0.82;;
19163;SDS011;9714;51.208;4.242;2022-09-09T13:33:51;4.85;;;0.80;;
19163;SDS011;9714;51.208;4.242;2022-09-09T13:36:26;8.43;;;1.13;;
19163;SDS011;9714;51.208;4.242;2022-09-09T13:38:56;5.57;;;0.90;;
19163;SDS011;9714;51.208;4.242;2022-09-09T13:41:26;8.27;;;1.27;;
19163;SDS011;9714;51.208;4.242;2022-09-09T13:43:56;5.35;;;0.90;;
19163;SDS011;9714;51.208;4.242;2022-09-09T13:46:25;5.95;;;1.00;;
19163;SDS011;9714;51.208;4.242;2022-09-09T13:48:58;5.03;;;1.00;;
19163;SDS011;9714;51.208;4.242;2022-09-09T13:51:29;4.40;;;1.00;;
19163;SDS011;9714;51.208;4.242;2022-09-09T13:54:00;9.57;;;1.52;;
19163;SDS011;9714;51.208;4.242;2022-09-09T13:56:27;6.25;;;1.02;;
19163;SDS011;9714;51.208;4.242;2022-09-09T13:58:54;5.40;;;0.93;;
19163;SDS011;9714;51.208;4.242;2022-09-09T14:01:24;6.57;;;0.90;;
19163;SDS011;9714;51.208;4.242;2022-09-09T14:03:52;4.47;;;0.80;;
19163;SDS011;9714;51.208;4.242;2022-09-09T14:06:21;5.80;;;1.50;;
19163;SDS011;9714;51.208;4.242;2022-09-09T14:08:49;6.28;;;1.08;;
19163;SDS011;9714;51.208;4.242;2022-09-09T14:11:16;8.10;;;1.10;;
19163;SDS011;9714;51.208;4.242;2022-09-09T14:13:44;7.70;;;1.27;;
19163;SDS011;9714;51.208;4.242;2022-09-09T14:16:11;7.35;;;1.13;;
19163;SDS011;9714;51.208;4.242;2022-09-09T14:18:38;7.82;;;1.38;;
19163;SDS011;9714;51.208;4.242;2022-09-09T14:21:05;5.63;;;1.40;;
19163;SDS011;9714;51.208;4.242;2022-09-09T14:23:35;4.32;;;0.73;;
19163;SDS011;9714;51.208;4.242;2022-09-09T14:26:06;6.18;;;1.02;;
19163;SDS011;9714;51.208;4.242;2022-09-09T14:28:34;5.68;;;1.05;;
19163;SDS011;9714;51.208;4.242;2022-09-09T14:31:02;4.47;;;0.90;;
19163;SDS011;9714;51.208;4.242;2022-09-09T14:33:30;4.20;;;0.73;;
19163;SDS011;9714;51.208;4.242;2022-09-09T14:36:00;8.00;;;1.45;;
19163;SDS011;9714;51.208;4.242;2022-09-09T14:38:29;11.02;;;1.77;;
19163;SDS011;9714;51.208;4.242;2022-09-09T14:40:59;7.03;;;1.17;;
19163;SDS011;9714;51.208;4.242;2022-09-09T14:43:28;6.63;;;1.15;;
19163;SDS011;9714;51.208;4.242;2022-09-09T14:45:59;5.97;;;1.48;;
19163;SDS011;9714;51.208;4.242;2022-09-09T14:48:32;10.65;;;1.63;;
19163;SDS011;9714;51.208;4.242;2022-09-09T14:51:04;7.40;;;1.50;;
19163;SDS011;9714;51.208;4.242;2022-09-09T14:53:32;8.55;;;1.60;;
19163;SDS011;9714;51.208;4.242;2022-09-09T14:56:04;9.88;;;1.80;;
19163;SDS011;9714;51.208;4.242;2022-09-09T14:58:32;9.23;;;1.70;;
19163;SDS011;9714;51.208;4.242;2022-09-09T15:01:03;9.82;;;1.77;;
19163;SDS011;9714;51.208;4.242;2022-09-09T15:03:31;10.32;;;2.40;;
19163;SDS011;9714;51.208;4.242;2022-09-09T15:06:04;7.00;;;1.63;;
19163;SDS011;9714;51.208;4.242;2022-09-09T15:08:33;8.85;;;2.67;;
19163;SDS011;9714;51.208;4.242;2022-09-09T15:11:00;7.30;;;1.90;;
19163;SDS011;9714;51.208;4.242;2022-09-09T15:13:29;10.25;;;1.95;;
19163;SDS011;9714;51.208;4.242;2022-09-09T15:16:03;8.70;;;1.92;;
19163;SDS011;9714;51.208;4.242;2022-09-09T15:18:31;7.70;;;1.77;;
19163;SDS011;9714;51.208;4.242;2022-09-09T15:20:58;8.70;;;1.60;;
19163;SDS011;9714;51.208;4.242;2022-09-09T15:23:26;11.75;;;1.92;;
19163;SDS011;9714;51.208;4.242;2022-09-09T15:25:54;6.18;;;1.17;;
19163;SDS011;9714;51.208;4.242;2022-09-09T15:28:21;9.73;;;1.55;;
19163;SDS011;9714;51.208;4.242;2022-09-09T15:30:51;4.82;;;1.50;;